Latest Weather Observations for Aireys Inlet

IDV60801

Issued at 2:32 pm EDT Wednesday 22 February 2017 (issued every 30 minutes, with the page automatically refreshed every 10 minutes)

About weather observations | Map of weather stations | Latest weather observations for VIC | Other Formats
Station Details ID: 090180 Name: AIREYS INLET Lat: -38.46 Lon: 144.09 Height: 105.0 m
Data from the previous 72 hours. | See also: Recent months at Aireys Inlet
Date/Time
EDT
Temp
°C
App
Temp
°C
Dew
Point
°C
Rel
Hum
%
Delta-T
°C
Wind Press
QNH
hPa
Press
MSL
hPa
Rain since
9am
mm
Dir  Spd
km/h
Gust
km/h
Spd
kts
Gust
kts
22/02:30pm 30.4 24.1 1.8 16 14.2 NNW 24 39 13 21 - - 0.0
22/02:09pm 30.3 23.1 0.8 15 14.4 N 28 54 15 29 - - 0.0
22/02:00pm 31.4 25.3 2.6 16 14.6 N 24 41 13 22 - - 0.0
22/01:30pm 30.2 22.5 2.5 17 13.9 N 32 46 17 25 - - 0.0
22/01:00pm 29.2 21.5 2.5 18 13.3 N 32 46 17 25 - - 0.0
22/12:39pm 29.2 22.4 3.2 19 13.1 N 28 46 15 25 - - 0.0
22/12:30pm 29.3 23.0 4.0 20 12.9 N 26 39 14 21 - - 0.0
22/12:19pm 29.1 22.3 3.1 19 13.1 N 28 48 15 26 - - 0.0
22/12:00pm 28.1 21.8 3.7 21 12.3 N 26 46 14 25 - - 0.0
22/11:30am 26.1 21.8 7.2 30 10.0 N 19 33 10 18 - - 0.0
22/11:00am 24.6 20.8 7.7 34 9.0 NNE 17 26 9 14 - - 0.0
22/10:30am 22.5 20.5 10.0 45 6.8 NNE 11 20 6 11 - - 0.0
22/10:00am 20.8 18.5 10.3 51 5.7 NNE 13 19 7 10 - - 0.0
22/09:30am 20.4 17.8 9.3 49 5.9 NNE 13 20 7 11 - - 0.0
22/09:00am 18.1 17.0 10.5 61 4.1 NNE 7 11 4 6 - - 0.0
22/08:30am 16.9 16.3 9.1 60 4.1 N 2 4 1 2 - - -
22/08:00am 16.0 15.4 9.0 63 3.6 WNW 2 6 1 3 - - -
22/07:30am 15.2 14.1 10.0 71 2.7 N 6 9 3 5 - - -
22/07:00am 14.1 12.6 10.7 80 1.8 N 9 13 5 7 - - -
22/06:30am 14.3 12.2 11.1 81 1.7 N 13 22 7 12 - - -
22/06:00am 14.6 13.0 11.7 83 1.6 N 11 15 6 8 - - -
22/05:30am 13.9 - 12.6 92 0.7 - - - - - - - -
22/05:00am 12.6 11.4 11.5 93 0.6 N 9 11 5 6 - - 0.0
22/04:30am 12.7 11.4 11.4 92 0.7 N 9 13 5 7 - - 0.0
22/04:00am 13.0 11.8 11.6 91 0.7 N 9 13 5 7 - - 0.0
22/03:30am 13.4 12.3 11.8 90 0.9 N 9 11 5 6 - - 0.0
22/03:00am 13.5 12.3 11.6 88 1.0 N 9 13 5 7 - - 0.0
22/02:30am 13.6 12.8 11.7 88 1.0 N 7 9 4 5 - - 0.0
22/02:00am 13.2 12.4 11.6 90 0.9 NNW 7 9 4 5 - - 0.0
22/01:30am 13.2 11.9 11.4 89 1.0 NNW 9 11 5 6 - - 0.0
22/01:00am 14.1 13.6 12.0 87 1.1 NNW 6 6 3 3 - - 0.0
22/12:30am 14.0 13.8 11.7 86 1.2 NE 4 7 2 4 - - 0.0
22/12:00am 14.2 13.5 11.4 83 1.5 NNE 6 11 3 6 - - 0.0
 
Date/Time
EDT
Temp
°C
App
Temp
°C
Dew
Point
°C
Rel
Hum
%
Delta-T
°C
Wind Press
QNH
hPa
Press
MSL
hPa
Rain since
9am
mm
Dir  Spd
km/h
Gust
km/h
Spd
kts
Gust
kts
21/11:30pm 14.2 13.8 11.0 81 1.7 NNE 4 6 2 3 - - 0.0
21/11:00pm 14.4 14.0 11.2 81 1.7 ENE 4 6 2 3 - - 0.0
21/10:30pm 15.1 14.4 11.3 78 2.0 E 6 9 3 5 - - 0.0
21/10:00pm 15.3 14.6 11.3 77 2.2 ESE 6 9 3 5 - - 0.0
21/09:30pm 15.3 14.5 11.1 76 2.3 ESE 6 7 3 4 - - 0.0
21/09:00pm 15.3 14.5 10.9 75 2.3 ESE 6 9 3 5 - - 0.0
21/08:30pm 15.6 14.6 11.0 74 2.5 ESE 7 11 4 6 - - 0.0
21/08:00pm 16.0 15.2 11.0 72 2.7 SE 6 9 3 5 - - 0.0
21/07:30pm 16.7 15.9 11.0 69 3.1 SE 6 11 3 6 - - 0.0
21/07:00pm 17.4 16.4 11.0 66 3.5 ESE 7 11 4 6 - - 0.0
21/06:30pm 17.8 16.8 10.9 64 3.7 SE 7 11 4 6 - - 0.0
21/06:00pm 18.6 17.5 10.7 60 4.3 SE 7 13 4 7 - - 0.0
21/05:30pm 18.1 16.1 10.0 59 4.3 ESE 11 19 6 10 - - 0.0
21/05:00pm 18.9 17.2 9.9 56 4.8 SE 9 15 5 8 - - 0.0
21/04:30pm 19.1 17.5 10.1 56 4.8 ESE 9 17 5 9 - - 0.0
21/04:00pm 19.1 17.4 9.9 55 4.9 SE 9 13 5 7 - - 0.0
21/03:30pm 19.1 17.4 9.9 55 4.9 SE 9 15 5 8 - - 0.0
21/03:00pm 19.5 17.5 10.2 55 5.0 SSE 11 19 6 10 - - 0.0
21/02:30pm 19.0 17.0 10.0 56 4.8 SE 11 17 6 9 - - 0.0
21/02:00pm 19.8 18.1 10.0 53 5.3 ESE 9 19 5 10 - - 0.0
21/01:30pm 19.7 18.2 10.4 55 5.0 SE 9 19 5 10 - - 0.0
21/01:00pm 19.0 17.0 10.0 56 4.8 SSE 11 22 6 12 - - 0.0
21/12:30pm 18.8 16.9 10.4 58 4.5 SSE 11 19 6 10 - - 0.0
21/12:00pm 19.8 18.4 10.8 56 4.9 S 9 15 5 8 - - 0.0
21/11:30am 19.0 16.9 11.3 61 4.2 S 13 19 7 10 - - 0.0
21/11:00am 18.7 17.2 10.5 59 4.4 S 9 17 5 9 - - 0.0
21/10:30am 18.4 17.2 10.3 59 4.4 SSW 7 13 4 7 - - 0.0
21/10:00am 17.5 16.0 10.4 63 3.8 SSW 9 19 5 10 - - 0.0
21/09:30am 16.3 14.1 9.5 64 3.6 SW 11 17 6 9 - - 0.0
21/09:00am 15.0 12.9 9.8 71 2.7 SW 11 17 6 9 - - 0.0
21/08:30am 13.8 12.5 9.3 74 2.3 W 6 9 3 5 - - 0.0
21/08:00am 12.1 10.6 9.1 82 1.5 NW 7 9 4 5 - - 0.0
21/07:30am 11.3 9.2 8.3 82 1.5 WNW 9 11 5 6 - - 0.0
21/07:00am 11.1 9.0 8.3 83 1.4 WNW 9 11 5 6 - - 0.0
21/06:30am 11.6 8.8 8.5 81 1.5 NW 13 17 7 9 - - 0.0
21/06:00am 12.4 9.9 8.3 76 2.0 WNW 11 13 6 7 - - 0.0
21/05:30am 12.1 10.6 8.4 78 1.8 NW 6 7 3 4 - - 0.0
21/05:00am 12.3 10.6 8.4 77 1.9 NW 7 9 4 5 - - 0.0
21/04:30am 12.7 11.0 8.4 75 2.1 W 7 9 4 5 - - 0.0
21/04:00am 13.1 11.5 8.6 74 2.3 WNW 7 11 4 6 - - 0.0
21/03:30am 12.8 10.4 8.7 76 2.1 NW 11 13 6 7 - - 0.0
21/03:00am 12.8 10.4 8.7 76 2.1 WNW 11 15 6 8 - - 0.0
21/02:30am 12.7 10.7 8.6 76 2.1 W 9 15 5 8 - - 0.0
21/02:00am 11.9 9.1 8.7 81 1.6 NW 13 19 7 10 - - 0.0
21/01:30am 11.6 9.2 8.6 82 1.5 NW 11 15 6 8 - - 0.0
21/01:00am 12.1 10.5 8.8 80 1.7 WNW 7 11 4 6 - - 0.0
21/12:30am 12.3 10.2 8.4 77 1.9 WNW 9 13 5 7 - - 0.0
21/12:00am 12.2 9.1 8.7 79 1.8 WNW 15 20 8 11 - - 0.0
 
Date/Time
EDT
Temp
°C
App
Temp
°C
Dew
Point
°C
Rel
Hum
%
Delta-T
°C
Wind Press
QNH
hPa
Press
MSL
hPa
Rain since
9am
mm
Dir  Spd
km/h
Gust
km/h
Spd
kts
Gust
kts
20/11:30pm 12.1 9.0 8.8 80 1.7 NW 15 17 8 9 - - 0.0
20/11:00pm 12.6 9.7 8.3 75 2.1 WNW 13 17 7 9 - - 0.0
20/10:30pm 13.3 10.1 8.4 72 2.5 WNW 15 17 8 9 - - 0.0
20/10:00pm 13.5 10.7 8.4 71 2.6 W 13 20 7 11 - - 0.0
20/09:30pm 13.5 10.5 7.9 69 2.8 W 13 19 7 10 - - 0.0
20/09:00pm 14.2 11.2 7.9 66 3.1 WSW 13 19 7 10 - - 0.0
20/08:30pm 14.6 10.2 7.4 62 3.6 WSW 20 28 11 15 - - 0.0
20/08:00pm 15.3 11.5 7.6 60 3.8 WSW 17 24 9 13 - - 0.0
20/07:30pm 15.8 11.6 8.1 60 3.9 WSW 20 30 11 16 - - 0.0
20/07:00pm 17.8 12.9 8.4 54 4.9 SW 24 37 13 20 - - 0.0
20/06:30pm 17.9 13.3 9.8 59 4.3 SSW 24 37 13 20 - - 0.0
20/06:00pm 19.1 14.8 10.6 58 4.6 SW 24 39 13 21 - - 0.0
20/05:30pm 18.3 13.8 9.9 58 4.5 SW 24 35 13 19 - - 0.0
20/05:00pm 18.7 13.5 8.9 53 5.1 SW 26 39 14 21 - - 0.0
20/04:33pm 17.7 11.4 8.8 56 4.6 SW 32 50 17 27 - - 0.0
20/04:30pm 17.2 10.6 8.4 56 4.5 SW 33 50 18 27 - - 0.0
20/04:21pm 16.6 10.3 8.8 60 4.0 SW 32 50 17 27 - - 0.0
20/04:00pm 16.8 10.4 10.6 67 3.3 SW 35 48 19 26 - - 0.0
20/03:31pm 17.9 13.0 11.2 65 3.7 SSW 28 46 15 25 - - 0.0
20/03:30pm 17.6 12.7 11.2 66 3.5 SSW 28 44 15 24 - - 0.0
20/03:00pm 16.0 10.1 10.3 69 3.0 SSW 32 52 17 28 - - 0.0
20/02:30pm 16.1 10.3 11.5 74 2.5 SSW 33 54 18 29 - - 0.0
20/02:18pm 16.6 11.1 10.7 68 3.2 SSW 30 52 16 28 - - 0.0
20/02:00pm 16.5 11.3 10.4 67 3.2 SSW 28 43 15 23 - - 0.0
20/01:30pm 17.6 13.1 8.5 55 4.7 SSW 22 33 12 18 - - 0.0
20/01:00pm 18.0 12.1 7.4 50 5.4 WSW 28 43 15 23 - - 0.0
20/12:30pm 15.9 10.3 8.9 63 3.6 SW 28 43 15 23 - - 0.0
20/12:00pm 17.8 12.2 8.9 56 4.6 SW 28 43 15 23 - - 0.0
20/11:30am 17.5 13.6 10.9 65 3.6 SW 22 33 12 18 - - 0.0
20/11:00am 17.0 12.0 9.4 61 4.0 SW 26 37 14 20 - - 0.0
20/10:30am 16.4 12.7 10.0 66 3.4 SW 20 30 11 16 - - 0.0
20/10:00am 14.1 8.9 8.7 70 2.7 WSW 26 39 14 21 - - 0.0
20/09:30am 14.0 9.6 9.0 72 2.5 WSW 22 32 12 17 - - 0.0
20/09:00am 13.5 9.5 9.0 74 2.3 WSW 20 33 11 18 - - 3.8
20/08:30am 12.2 8.2 9.0 81 1.6 WSW 20 32 11 17 - - 3.8
20/08:00am 11.4 7.9 8.8 84 1.3 W 17 22 9 12 - - 3.8
20/07:30am 10.9 7.1 9.0 88 0.9 WSW 19 26 10 14 - - 3.8
20/07:00am 10.7 7.2 8.8 88 0.9 W 17 22 9 12 - - 3.8
20/06:30am 10.6 6.7 8.5 87 1.0 WSW 19 26 10 14 - - 3.4
20/06:00am 10.6 6.5 8.5 87 1.0 W 20 28 11 15 - - 3.4
20/05:30am 10.6 7.1 8.9 89 0.8 W 17 24 9 13 - - 3.4
20/05:00am 10.5 7.1 9.1 91 0.7 W 17 20 9 11 - - 3.4
20/04:30am 10.6 7.4 8.5 87 1.0 W 15 19 8 10 - - 2.2
20/04:00am 11.0 6.8 8.2 83 1.4 WSW 20 30 11 16 - - 1.4
20/03:30am 11.0 6.8 7.3 78 1.8 W 19 28 10 15 - - 1.2
20/03:00am 11.0 5.9 7.7 80 1.6 W 24 33 13 18 - - 1.2
20/02:30am 10.8 6.5 7.7 81 1.5 W 20 28 11 15 - - 1.2
20/02:00am 10.8 6.1 7.7 81 1.5 W 22 32 12 17 - - 1.2
20/01:30am 10.3 6.3 8.2 87 1.0 WNW 19 24 10 13 - - 1.2
20/01:00am 10.3 6.6 8.1 86 1.1 W 17 24 9 13 - - 1.2
20/12:30am 11.2 6.7 7.1 76 2.0 W 20 32 11 17 - - 0.8
20/12:00am 11.0 7.1 6.9 76 2.0 W 17 24 9 13 - - 0.8
 
Date/Time
EDT
Temp
°C
App
Temp
°C
Dew
Point
°C
Rel
Hum
%
Delta-T
°C
Wind Press
QNH
hPa
Press
MSL
hPa
Rain since
9am
mm
Dir  Spd
km/h
Gust
km/h
Spd
kts
Gust
kts
19/11:30pm 11.1 6.6 6.8 75 2.0 W 20 30 11 16 - - 0.8
19/11:00pm 11.0 7.0 6.6 74 2.1 W 17 24 9 13 - - 0.8
19/10:30pm 11.1 7.0 6.3 72 2.3 W 17 24 9 13 - - 0.8
19/10:00pm 11.2 6.6 6.5 73 2.2 W 20 28 11 15 - - 0.8
19/09:30pm 11.6 7.5 6.1 69 2.6 W 17 24 9 13 - - 0.8
19/09:00pm 11.7 7.6 6.2 69 2.6 W 17 24 9 13 - - 0.8
19/08:30pm 12.3 7.8 6.1 66 2.9 WSW 19 28 10 15 - - 0.8
19/08:00pm 12.6 8.1 6.2 65 3.0 W 19 30 10 16 - - 0.8
19/07:30pm 13.3 8.6 6.2 62 3.4 W 20 32 11 17 - - 0.8
19/07:00pm 13.6 9.0 6.7 63 3.3 WSW 20 35 11 19 - - 0.8
19/06:30pm 14.4 9.8 6.5 59 3.8 WSW 20 33 11 18 - - 0.8
19/06:00pm 13.3 9.4 7.1 66 3.0 WSW 17 26 9 14 - - 0.8
19/05:30pm 12.8 7.9 7.0 68 2.8 WSW 22 33 12 18 - - 0.8
19/05:00pm 12.5 7.5 8.0 74 2.2 SW 24 35 13 19 - - 0.8
19/04:30pm 12.2 7.4 8.7 79 1.8 WSW 24 39 13 21 - - 0.8
19/04:19pm 12.9 7.4 9.0 77 2.0 SW 28 46 15 25 - - 0.6
19/04:00pm 15.5 9.1 7.0 57 4.2 WSW 30 46 16 25 - - 0.4
19/03:30pm 12.3 7.8 8.4 77 1.9 W 22 35 12 19 - - 0.4
19/03:12pm 15.4 9.0 5.0 50 4.9 W 28 52 15 28 - - 0.2
19/03:00pm 17.2 10.4 4.9 44 5.9 W 30 43 16 23 - - 0.2

Other Formats:

Comma delimited format used in spreadsheet applications
http://www.bom.gov.au/fwo/IDV60801/IDV60801.94846.axf

JavaScript Object Notation format (JSON) in row-major order
http://www.bom.gov.au/fwo/IDV60801/IDV60801.94846.json